Havaijille! KLAX-PHNL AAL267. [11]

(1/1)

Erik_P:
Tervehdys taas.  Tänään tuli pamautettua American airlinesin lento Los Angelesista Honolululle.

Edellisestä stoorista ei ole kuukauttakaan, mutta lupaan tämän jälkeen pitää taukoa. 

Lentosuunnitelman tapainen:

(FPL-AAL267-IS
-B752/M-SDIJPRWXYZ/S
-KLAX 1515
-N0470F360 PERCH9 DINTY R576 DUSAC 24N51 CLUTS MAGGI3
-PHNL0515 PHKO
-OPR/AMERICAN AIRLINES/DOF/111212/REG/N174AA/VOICE ONLY RECEIVE/TCAS EQUIPPED/

Elikkä siis koneena on B757-200 rekisteriltään N174AA. Kyseinen kone on Oneworld -logojetti. Koko matkan ajaksi oli tulossa vastatuulta, joten arvioitu lentoaika oli 5 tuntia ja 15 minuuttia.

KLAX:in METAR

KLAX 121353Z 06007KT 7SM OVC018 11/08 A2978 RMK AO2 RAE00B34E48 SLP084 P0000 T01060083

Los Angelesissa oli vasta aikainen aamu, kun saavuin henkilökunnan bussilla kentälle.
Walk-around suoritettu, toimisto odottaa.
[ Attachment not found - or removed ]

Valitsimme lentoonlähtöön kiitotien 07R.
[ Attachment not found - or removed ]

Moottorien käynnistelyä
[ Attachment not found - or removed ]

Ohjainpintojen tarkistus, laipat laskettu asetus viiteen.
[ Attachment not found - or removed ]

Ilmaan päästiin lopulta. 
[ Attachment not found - or removed ]

Noustaan suoraan pinnalle 360. Edessä vajaa 5h kruisailua tyynenmeren yllä. 
[ Attachment not found - or removed ]

Hypätään muutama tunti eteenpäin, descent aloitettu.
[ Attachment not found - or removed ]

Honolulun kentän METAR:
PHNL 121453Z 07012G17KT 9SM -RA SCT024 BKN034 23/20 A2997 RMK AO2 RAB1357 SLP150 P0000 60000 T02280200 56020 $

Valitsimme laskukiitotieksi 8L, tuloreittiä MAGGI3 pitkin.

Maata näkyvissä, viimein. 
[ Attachment not found - or removed ]

Jokin helikopteri pörräsi kentän ympärillä.
[ Attachment not found - or removed ]

Silkkiä. 
[ Attachment not found - or removed ]

Rullasimme N ja Z:n kautta portille.
[ Attachment not found - or removed ]

Tiedän että kuviin ei ole mitään kommentoitavaa, mutta operointivirheistä saa huomauttaa. 

tjh80:
Eipä noissa mitn huonoa sen kummemmin ole, nuo ilmoitukset kun saat simussa piilotettua, kuten Parking Brakes niin ei tuossa sitten mitn olekaan huomautettavaa.
Noita ilmoitusikkunoita saa poistettua cfg:n kautta pitkälti.

Mixual:
Torstaina tämä lento IRL

Navigation

Up one level